sensor_id;sensor_type;location;lat;lon;timestamp;P1;durP1;ratioP1;P2;durP2;ratioP2
57535;SDS011;43361;49.790;8.960;2022-10-31T00:04:44;8.68;;;3.40;;
57535;SDS011;43361;49.790;8.960;2022-10-31T00:14:45;5.10;;;2.97;;
57535;SDS011;43361;49.790;8.960;2022-10-31T00:24:46;3.78;;;2.45;;
57535;SDS011;43361;49.790;8.960;2022-10-31T00:34:47;6.53;;;2.90;;
57535;SDS011;43361;49.790;8.960;2022-10-31T00:44:48;6.38;;;3.08;;
57535;SDS011;43361;49.790;8.960;2022-10-31T00:54:50;6.30;;;2.85;;
57535;SDS011;43361;49.790;8.960;2022-10-31T01:04:50;5.25;;;2.28;;
57535;SDS011;43361;49.790;8.960;2022-10-31T01:14:52;5.35;;;2.28;;
57535;SDS011;43361;49.790;8.960;2022-10-31T01:24:52;4.05;;;2.33;;
57535;SDS011;43361;49.790;8.960;2022-10-31T01:34:54;3.88;;;2.33;;
57535;SDS011;43361;49.790;8.960;2022-10-31T01:44:58;6.05;;;2.67;;
57535;SDS011;43361;49.790;8.960;2022-10-31T01:55:01;4.00;;;2.13;;
57535;SDS011;43361;49.790;8.960;2022-10-31T02:05:04;4.65;;;2.38;;
57535;SDS011;43361;49.790;8.960;2022-10-31T02:15:08;3.92;;;2.10;;
57535;SDS011;43361;49.790;8.960;2022-10-31T02:25:13;3.78;;;2.20;;
57535;SDS011;43361;49.790;8.960;2022-10-31T02:35:23;4.47;;;2.10;;
57535;SDS011;43361;49.790;8.960;2022-10-31T02:45:25;5.30;;;2.00;;
57535;SDS011;43361;49.790;8.960;2022-10-31T02:55:49;4.47;;;2.17;;
57535;SDS011;43361;49.790;8.960;2022-10-31T03:05:51;4.18;;;2.05;;
57535;SDS011;43361;49.790;8.960;2022-10-31T03:15:56;5.45;;;2.25;;
57535;SDS011;43361;49.790;8.960;2022-10-31T03:26:02;4.88;;;1.98;;
57535;SDS011;43361;49.790;8.960;2022-10-31T03:36:07;4.43;;;2.10;;
57535;SDS011;43361;49.790;8.960;2022-10-31T03:46:07;3.95;;;2.15;;
57535;SDS011;43361;49.790;8.960;2022-10-31T03:56:11;4.43;;;2.03;;
57535;SDS011;43361;49.790;8.960;2022-10-31T04:06:13;3.20;;;2.00;;
57535;SDS011;43361;49.790;8.960;2022-10-31T04:16:16;3.03;;;1.58;;
57535;SDS011;43361;49.790;8.960;2022-10-31T04:26:16;2.83;;;1.60;;
57535;SDS011;43361;49.790;8.960;2022-10-31T04:36:18;4.13;;;1.95;;
57535;SDS011;43361;49.790;8.960;2022-10-31T04:46:19;2.80;;;1.73;;
57535;SDS011;43361;49.790;8.960;2022-10-31T04:56:20;2.75;;;1.67;;
57535;SDS011;43361;49.790;8.960;2022-10-31T05:06:21;3.40;;;1.60;;
57535;SDS011;43361;49.790;8.960;2022-10-31T05:16:23;2.75;;;1.67;;
57535;SDS011;43361;49.790;8.960;2022-10-31T05:26:23;2.28;;;1.40;;
57535;SDS011;43361;49.790;8.960;2022-10-31T05:36:25;3.75;;;1.67;;
57535;SDS011;43361;49.790;8.960;2022-10-31T05:46:26;5.53;;;1.55;;
57535;SDS011;43361;49.790;8.960;2022-10-31T05:56:28;2.28;;;1.52;;
57535;SDS011;43361;49.790;8.960;2022-10-31T06:06:28;3.30;;;1.48;;
57535;SDS011;43361;49.790;8.960;2022-10-31T06:16:30;5.80;;;1.52;;
57535;SDS011;43361;49.790;8.960;2022-10-31T06:26:30;4.65;;;2.10;;
57535;SDS011;43361;49.790;8.960;2022-10-31T06:36:32;7.72;;;2.22;;
57535;SDS011;43361;49.790;8.960;2022-10-31T06:46:32;9.80;;;1.90;;
57535;SDS011;43361;49.790;8.960;2022-10-31T06:56:34;31.10;;;8.85;;
57535;SDS011;43361;49.790;8.960;2022-10-31T07:06:34;20.33;;;6.03;;
57535;SDS011;43361;49.790;8.960;2022-10-31T07:16:36;21.45;;;6.28;;
57535;SDS011;43361;49.790;8.960;2022-10-31T07:26:37;18.40;;;6.03;;
57535;SDS011;43361;49.790;8.960;2022-10-31T07:36:38;28.92;;;5.90;;
57535;SDS011;43361;49.790;8.960;2022-10-31T07:46:39;23.33;;;6.45;;
57535;SDS011;43361;49.790;8.960;2022-10-31T07:56:40;14.75;;;4.68;;
57535;SDS011;43361;49.790;8.960;2022-10-31T08:06:41;15.00;;;5.13;;
57535;SDS011;43361;49.790;8.960;2022-10-31T08:16:43;13.13;;;4.63;;
57535;SDS011;43361;49.790;8.960;2022-10-31T08:26:43;13.68;;;4.38;;
57535;SDS011;43361;49.790;8.960;2022-10-31T08:36:45;17.02;;;5.03;;
57535;SDS011;43361;49.790;8.960;2022-10-31T08:46:46;12.65;;;4.50;;
57535;SDS011;43361;49.790;8.960;2022-10-31T08:56:48;11.45;;;4.07;;
57535;SDS011;43361;49.790;8.960;2022-10-31T09:06:48;17.88;;;4.15;;
57535;SDS011;43361;49.790;8.960;2022-10-31T09:16:50;11.43;;;3.10;;
57535;SDS011;43361;49.790;8.960;2022-10-31T09:26:50;14.85;;;3.60;;
57535;SDS011;43361;49.790;8.960;2022-10-31T09:36:52;7.20;;;3.00;;
57535;SDS011;43361;49.790;8.960;2022-10-31T09:46:54;8.68;;;3.05;;
57535;SDS011;43361;49.790;8.960;2022-10-31T09:56:59;8.55;;;2.97;;
57535;SDS011;43361;49.790;8.960;2022-10-31T10:07:04;6.70;;;3.15;;
57535;SDS011;43361;49.790;8.960;2022-10-31T10:17:13;9.27;;;2.72;;
57535;SDS011;43361;49.790;8.960;2022-10-31T10:27:20;4.90;;;2.42;;
57535;SDS011;43361;49.790;8.960;2022-10-31T10:37:26;8.57;;;2.70;;
57535;SDS011;43361;49.790;8.960;2022-10-31T10:47:29;8.25;;;2.78;;
57535;SDS011;43361;49.790;8.960;2022-10-31T10:57:46;5.90;;;2.55;;
57535;SDS011;43361;49.790;8.960;2022-10-31T11:07:54;5.40;;;2.50;;
57535;SDS011;43361;49.790;8.960;2022-10-31T11:17:55;7.30;;;2.47;;
57535;SDS011;43361;49.790;8.960;2022-10-31T11:27:59;10.00;;;2.55;;
57535;SDS011;43361;49.790;8.960;2022-10-31T11:38:01;4.97;;;2.20;;
57535;SDS011;43361;49.790;8.960;2022-10-31T11:48:14;6.18;;;2.35;;
57535;SDS011;43361;49.790;8.960;2022-10-31T11:58:23;7.10;;;2.47;;
57535;SDS011;43361;49.790;8.960;2022-10-31T12:08:24;7.45;;;2.65;;
57535;SDS011;43361;49.790;8.960;2022-10-31T12:18:31;6.70;;;2.10;;
57535;SDS011;43361;49.790;8.960;2022-10-31T12:28:45;5.28;;;1.80;;
57535;SDS011;43361;49.790;8.960;2022-10-31T12:38:58;5.90;;;2.28;;
57535;SDS011;43361;49.790;8.960;2022-10-31T12:49:09;6.07;;;2.10;;
57535;SDS011;43361;49.790;8.960;2022-10-31T13:09:15;6.40;;;2.25;;
57535;SDS011;43361;49.790;8.960;2022-10-31T13:19:17;5.45;;;1.70;;
57535;SDS011;43361;49.790;8.960;2022-10-31T13:29:21;7.30;;;2.03;;
57535;SDS011;43361;49.790;8.960;2022-10-31T13:39:25;6.28;;;2.13;;
57535;SDS011;43361;49.790;8.960;2022-10-31T13:49:39;11.40;;;2.30;;
57535;SDS011;43361;49.790;8.960;2022-10-31T13:59:39;7.88;;;1.90;;
57535;SDS011;43361;49.790;8.960;2022-10-31T14:09:52;5.88;;;1.95;;
57535;SDS011;43361;49.790;8.960;2022-10-31T14:19:58;6.38;;;2.10;;
57535;SDS011;43361;49.790;8.960;2022-10-31T14:30:08;11.70;;;2.03;;
57535;SDS011;43361;49.790;8.960;2022-10-31T14:50:40;10.43;;;2.13;;
57535;SDS011;43361;49.790;8.960;2022-10-31T15:00:41;12.45;;;2.42;;
57535;SDS011;43361;49.790;8.960;2022-10-31T15:10:45;5.28;;;1.92;;
57535;SDS011;43361;49.790;8.960;2022-10-31T15:20:46;11.32;;;2.03;;
57535;SDS011;43361;49.790;8.960;2022-10-31T15:30:51;6.78;;;1.90;;
57535;SDS011;43361;49.790;8.960;2022-10-31T15:40:53;4.70;;;1.65;;
57535;SDS011;43361;49.790;8.960;2022-10-31T15:50:55;8.45;;;1.80;;
57535;SDS011;43361;49.790;8.960;2022-10-31T16:00:57;6.80;;;2.35;;
57535;SDS011;43361;49.790;8.960;2022-10-31T16:11:00;3.30;;;1.75;;
57535;SDS011;43361;49.790;8.960;2022-10-31T16:21:03;5.47;;;1.83;;
57535;SDS011;43361;49.790;8.960;2022-10-31T16:31:13;7.22;;;1.80;;
57535;SDS011;43361;49.790;8.960;2022-10-31T16:41:14;4.00;;;1.92;;
57535;SDS011;43361;49.790;8.960;2022-10-31T16:51:15;7.22;;;1.95;;
57535;SDS011;43361;49.790;8.960;2022-10-31T17:01:16;8.07;;;2.88;;
57535;SDS011;43361;49.790;8.960;2022-10-31T17:11:18;11.15;;;2.80;;
57535;SDS011;43361;49.790;8.960;2022-10-31T17:21:20;14.25;;;3.90;;
57535;SDS011;43361;49.790;8.960;2022-10-31T17:31:25;15.95;;;5.13;;
57535;SDS011;43361;49.790;8.960;2022-10-31T17:41:27;15.23;;;5.18;;
57535;SDS011;43361;49.790;8.960;2022-10-31T17:51:28;18.40;;;5.00;;
57535;SDS011;43361;49.790;8.960;2022-10-31T18:01:29;18.25;;;5.15;;
57535;SDS011;43361;49.790;8.960;2022-10-31T18:11:31;21.10;;;5.45;;
57535;SDS011;43361;49.790;8.960;2022-10-31T18:21:32;19.88;;;5.70;;
57535;SDS011;43361;49.790;8.960;2022-10-31T18:31:33;19.13;;;5.03;;
57535;SDS011;43361;49.790;8.960;2022-10-31T18:41:34;13.98;;;5.13;;
57535;SDS011;43361;49.790;8.960;2022-10-31T18:51:36;13.60;;;4.68;;
57535;SDS011;43361;49.790;8.960;2022-10-31T19:01:36;18.35;;;4.57;;
57535;SDS011;43361;49.790;8.960;2022-10-31T19:11:38;14.02;;;5.03;;
57535;SDS011;43361;49.790;8.960;2022-10-31T19:21:39;15.75;;;4.80;;
57535;SDS011;43361;49.790;8.960;2022-10-31T19:31:41;13.35;;;4.72;;
57535;SDS011;43361;49.790;8.960;2022-10-31T19:41:41;10.88;;;4.00;;
57535;SDS011;43361;49.790;8.960;2022-10-31T19:51:43;12.18;;;4.35;;
57535;SDS011;43361;49.790;8.960;2022-10-31T20:01:43;10.40;;;4.38;;
57535;SDS011;43361;49.790;8.960;2022-10-31T20:11:45;9.00;;;3.63;;
57535;SDS011;43361;49.790;8.960;2022-10-31T20:21:46;7.85;;;3.22;;
57535;SDS011;43361;49.790;8.960;2022-10-31T20:31:48;10.95;;;4.20;;
57535;SDS011;43361;49.790;8.960;2022-10-31T20:41:48;10.95;;;4.85;;
57535;SDS011;43361;49.790;8.960;2022-10-31T20:51:50;6.35;;;3.67;;
57535;SDS011;43361;49.790;8.960;2022-10-31T21:01:50;9.65;;;4.03;;
57535;SDS011;43361;49.790;8.960;2022-10-31T21:11:52;7.35;;;3.47;;
57535;SDS011;43361;49.790;8.960;2022-10-31T21:21:52;6.38;;;3.33;;
57535;SDS011;43361;49.790;8.960;2022-10-31T21:31:54;7.85;;;3.92;;
57535;SDS011;43361;49.790;8.960;2022-10-31T21:41:55;6.53;;;3.55;;
57535;SDS011;43361;49.790;8.960;2022-10-31T21:51:56;11.23;;;3.83;;
57535;SDS011;43361;49.790;8.960;2022-10-31T22:01:57;6.03;;;3.05;;
57535;SDS011;43361;49.790;8.960;2022-10-31T22:12:00;7.50;;;3.20;;
57535;SDS011;43361;49.790;8.960;2022-10-31T22:22:05;7.10;;;3.10;;
57535;SDS011;43361;49.790;8.960;2022-10-31T22:32:07;7.32;;;3.38;;
57535;SDS011;43361;49.790;8.960;2022-10-31T22:42:07;5.93;;;3.10;;
57535;SDS011;43361;49.790;8.960;2022-10-31T22:52:09;4.70;;;2.83;;
57535;SDS011;43361;49.790;8.960;2022-10-31T23:02:10;6.78;;;3.33;;
57535;SDS011;43361;49.790;8.960;2022-10-31T23:12:12;6.63;;;3.30;;
57535;SDS011;43361;49.790;8.960;2022-10-31T23:22:32;5.82;;;2.63;;
57535;SDS011;43361;49.790;8.960;2022-10-31T23:32:35;4.30;;;2.75;;
57535;SDS011;43361;49.790;8.960;2022-10-31T23:42:35;6.07;;;2.65;;
57535;SDS011;43361;49.790;8.960;2022-10-31T23:52:37;6.15;;;3.25;;
